sensor_id;sensor_type;location;lat;lon;timestamp;temperature;humidity
40123;DHT22;25832;45.490;4.912;2022-12-10T00:00:19;1.50;99.90
40123;DHT22;25832;45.490;4.912;2022-12-10T00:02:44;1.50;99.90
40123;DHT22;25832;45.490;4.912;2022-12-10T00:05:10;1.50;99.90
40123;DHT22;25832;45.490;4.912;2022-12-10T00:07:36;1.50;99.90
40123;DHT22;25832;45.490;4.912;2022-12-10T00:10:01;1.60;99.90
40123;DHT22;25832;45.490;4.912;2022-12-10T00:12:27;1.50;99.90
40123;DHT22;25832;45.490;4.912;2022-12-10T00:14:53;1.50;99.90
40123;DHT22;25832;45.490;4.912;2022-12-10T00:17:18;1.50;99.90
40123;DHT22;25832;45.490;4.912;2022-12-10T00:19:44;1.60;99.90
40123;DHT22;25832;45.490;4.912;2022-12-10T00:22:10;1.60;99.90
40123;DHT22;25832;45.490;4.912;2022-12-10T00:24:35;1.60;99.90
40123;DHT22;25832;45.490;4.912;2022-12-10T00:27:01;1.60;99.90
40123;DHT22;25832;45.490;4.912;2022-12-10T00:29:27;1.50;99.90
40123;DHT22;25832;45.490;4.912;2022-12-10T00:31:53;1.60;99.90
40123;DHT22;25832;45.490;4.912;2022-12-10T00:34:18;1.60;99.90
40123;DHT22;25832;45.490;4.912;2022-12-10T00:36:46;1.60;99.90
40123;DHT22;25832;45.490;4.912;2022-12-10T00:39:18;1.60;99.90
40123;DHT22;25832;45.490;4.912;2022-12-10T00:41:45;1.60;99.90
40123;DHT22;25832;45.490;4.912;2022-12-10T00:44:11;1.60;99.90
40123;DHT22;25832;45.490;4.912;2022-12-10T00:46:37;1.60;99.90
40123;DHT22;25832;45.490;4.912;2022-12-10T00:49:02;1.60;99.90
40123;DHT22;25832;45.490;4.912;2022-12-10T00:51:29;1.60;99.90
40123;DHT22;25832;45.490;4.912;2022-12-10T00:53:56;1.60;99.90
40123;DHT22;25832;45.490;4.912;2022-12-10T00:56:28;1.60;99.90
40123;DHT22;25832;45.490;4.912;2022-12-10T00:58:54;1.60;99.90
40123;DHT22;25832;45.490;4.912;2022-12-10T01:01:35;1.60;99.90
40123;DHT22;25832;45.490;4.912;2022-12-10T01:04:08;1.60;99.90
40123;DHT22;25832;45.490;4.912;2022-12-10T01:06:51;1.60;99.90
40123;DHT22;25832;45.490;4.912;2022-12-10T01:09:20;1.60;99.90
40123;DHT22;25832;45.490;4.912;2022-12-10T01:11:47;1.60;99.90
40123;DHT22;25832;45.490;4.912;2022-12-10T01:14:17;1.60;99.90
40123;DHT22;25832;45.490;4.912;2022-12-10T01:16:43;1.60;99.90
40123;DHT22;25832;45.490;4.912;2022-12-10T01:19:09;1.60;99.90
40123;DHT22;25832;45.490;4.912;2022-12-10T01:21:35;1.60;99.90
40123;DHT22;25832;45.490;4.912;2022-12-10T01:24:02;1.50;99.90
40123;DHT22;25832;45.490;4.912;2022-12-10T01:26:30;1.60;99.90
40123;DHT22;25832;45.490;4.912;2022-12-10T01:28:56;1.50;99.90
40123;DHT22;25832;45.490;4.912;2022-12-10T01:31:25;1.60;99.90
40123;DHT22;25832;45.490;4.912;2022-12-10T01:33:51;1.60;99.90
40123;DHT22;25832;45.490;4.912;2022-12-10T01:36:25;1.60;99.90
40123;DHT22;25832;45.490;4.912;2022-12-10T01:38:51;1.60;99.90
40123;DHT22;25832;45.490;4.912;2022-12-10T01:46:23;1.60;99.90
40123;DHT22;25832;45.490;4.912;2022-12-10T01:48:49;1.60;99.90
40123;DHT22;25832;45.490;4.912;2022-12-10T01:51:15;1.50;99.90
40123;DHT22;25832;45.490;4.912;2022-12-10T01:53:41;1.50;99.90
40123;DHT22;25832;45.490;4.912;2022-12-10T01:56:10;1.50;99.90
40123;DHT22;25832;45.490;4.912;2022-12-10T01:58:36;1.50;99.90
40123;DHT22;25832;45.490;4.912;2022-12-10T02:01:10;1.50;99.90
40123;DHT22;25832;45.490;4.912;2022-12-10T02:17:18;1.40;99.90
40123;DHT22;25832;45.490;4.912;2022-12-10T02:19:59;1.40;99.90
40123;DHT22;25832;45.490;4.912;2022-12-10T02:22:33;1.40;99.90
40123;DHT22;25832;45.490;4.912;2022-12-10T02:25:01;1.40;99.90
40123;DHT22;25832;45.490;4.912;2022-12-10T02:30:18;1.30;99.90
40123;DHT22;25832;45.490;4.912;2022-12-10T02:32:46;1.30;99.90
40123;DHT22;25832;45.490;4.912;2022-12-10T02:35:21;1.30;99.90
40123;DHT22;25832;45.490;4.912;2022-12-10T02:38:12;1.30;99.90
40123;DHT22;25832;45.490;4.912;2022-12-10T02:40:45;1.30;99.90
40123;DHT22;25832;45.490;4.912;2022-12-10T02:43:13;1.30;99.90
40123;DHT22;25832;45.490;4.912;2022-12-10T02:45:39;1.30;99.90
40123;DHT22;25832;45.490;4.912;2022-12-10T02:48:06;1.40;99.90
40123;DHT22;25832;45.490;4.912;2022-12-10T02:50:33;1.40;99.90
40123;DHT22;25832;45.490;4.912;2022-12-10T02:52:58;1.40;99.90
40123;DHT22;25832;45.490;4.912;2022-12-10T02:55:24;1.30;99.90
40123;DHT22;25832;45.490;4.912;2022-12-10T03:00:29;1.40;99.90
40123;DHT22;25832;45.490;4.912;2022-12-10T03:08:21;1.30;99.90
40123;DHT22;25832;45.490;4.912;2022-12-10T03:10:52;1.40;99.90
40123;DHT22;25832;45.490;4.912;2022-12-10T03:13:23;1.30;99.90
40123;DHT22;25832;45.490;4.912;2022-12-10T03:15:51;1.30;99.90
40123;DHT22;25832;45.490;4.912;2022-12-10T03:18:22;1.40;99.90
40123;DHT22;25832;45.490;4.912;2022-12-10T03:20:49;1.40;99.90
40123;DHT22;25832;45.490;4.912;2022-12-10T03:23:18;1.40;99.90
40123;DHT22;25832;45.490;4.912;2022-12-10T03:25:47;1.40;99.90
40123;DHT22;25832;45.490;4.912;2022-12-10T03:28:14;1.30;99.90
40123;DHT22;25832;45.490;4.912;2022-12-10T03:30:41;1.40;99.90
40123;DHT22;25832;45.490;4.912;2022-12-10T03:33:08;1.40;99.90
40123;DHT22;25832;45.490;4.912;2022-12-10T03:35:34;1.40;99.90
40123;DHT22;25832;45.490;4.912;2022-12-10T03:38:01;1.30;99.90
40123;DHT22;25832;45.490;4.912;2022-12-10T03:40:27;1.30;99.90
40123;DHT22;25832;45.490;4.912;2022-12-10T03:42:53;1.30;99.90
40123;DHT22;25832;45.490;4.912;2022-12-10T03:45:19;1.20;99.90
40123;DHT22;25832;45.490;4.912;2022-12-10T03:47:45;1.10;99.90
40123;DHT22;25832;45.490;4.912;2022-12-10T03:50:10;1.10;99.90
40123;DHT22;25832;45.490;4.912;2022-12-10T03:52:36;1.00;99.90
40123;DHT22;25832;45.490;4.912;2022-12-10T03:55:02;1.00;99.90
40123;DHT22;25832;45.490;4.912;2022-12-10T03:57:28;0.90;99.90
40123;DHT22;25832;45.490;4.912;2022-12-10T03:59:54;0.90;99.90
40123;DHT22;25832;45.490;4.912;2022-12-10T04:02:20;0.80;99.90
40123;DHT22;25832;45.490;4.912;2022-12-10T04:04:45;0.80;99.90
40123;DHT22;25832;45.490;4.912;2022-12-10T04:07:11;0.80;99.90
40123;DHT22;25832;45.490;4.912;2022-12-10T04:09:37;0.80;99.90
40123;DHT22;25832;45.490;4.912;2022-12-10T04:12:02;0.70;99.90
40123;DHT22;25832;45.490;4.912;2022-12-10T04:14:28;0.80;99.90
40123;DHT22;25832;45.490;4.912;2022-12-10T04:17:13;0.70;99.90
40123;DHT22;25832;45.490;4.912;2022-12-10T04:19:38;0.70;99.90
40123;DHT22;25832;45.490;4.912;2022-12-10T04:22:04;0.70;99.90
40123;DHT22;25832;45.490;4.912;2022-12-10T04:24:49;0.70;99.90
40123;DHT22;25832;45.490;4.912;2022-12-10T04:27:37;0.70;99.90
40123;DHT22;25832;45.490;4.912;2022-12-10T04:30:07;0.70;99.90
40123;DHT22;25832;45.490;4.912;2022-12-10T04:32:33;0.70;99.90
40123;DHT22;25832;45.490;4.912;2022-12-10T04:34:59;0.60;99.90
40123;DHT22;25832;45.490;4.912;2022-12-10T04:37:27;0.70;99.90
40123;DHT22;25832;45.490;4.912;2022-12-10T04:39:53;0.60;99.90
40123;DHT22;25832;45.490;4.912;2022-12-10T04:42:20;0.60;99.90
40123;DHT22;25832;45.490;4.912;2022-12-10T04:44:46;0.60;99.90
40123;DHT22;25832;45.490;4.912;2022-12-10T04:47:12;0.60;99.90
40123;DHT22;25832;45.490;4.912;2022-12-10T04:49:39;0.60;99.90
40123;DHT22;25832;45.490;4.912;2022-12-10T04:52:07;0.60;99.90
40123;DHT22;25832;45.490;4.912;2022-12-10T04:54:33;0.60;99.90
40123;DHT22;25832;45.490;4.912;2022-12-10T04:56:59;0.60;99.90
40123;DHT22;25832;45.490;4.912;2022-12-10T04:59:25;0.60;99.90
40123;DHT22;25832;45.490;4.912;2022-12-10T05:01:50;0.60;99.90
40123;DHT22;25832;45.490;4.912;2022-12-10T05:04:18;0.60;99.90
40123;DHT22;25832;45.490;4.912;2022-12-10T05:06:44;0.60;99.90
40123;DHT22;25832;45.490;4.912;2022-12-10T05:09:11;0.70;99.90
40123;DHT22;25832;45.490;4.912;2022-12-10T05:11:37;0.70;99.90
40123;DHT22;25832;45.490;4.912;2022-12-10T05:14:03;0.70;99.90
40123;DHT22;25832;45.490;4.912;2022-12-10T05:16:31;0.70;99.90
40123;DHT22;25832;45.490;4.912;2022-12-10T05:18:58;0.60;99.90
40123;DHT22;25832;45.490;4.912;2022-12-10T05:21:26;0.70;99.90
40123;DHT22;25832;45.490;4.912;2022-12-10T05:24:12;0.70;99.90
40123;DHT22;25832;45.490;4.912;2022-12-10T05:26:38;0.70;99.90
40123;DHT22;25832;45.490;4.912;2022-12-10T05:29:04;0.70;99.90
40123;DHT22;25832;45.490;4.912;2022-12-10T05:31:30;0.70;99.90
40123;DHT22;25832;45.490;4.912;2022-12-10T05:33:57;0.70;99.90
40123;DHT22;25832;45.490;4.912;2022-12-10T05:36:25;0.70;99.90
40123;DHT22;25832;45.490;4.912;2022-12-10T05:38:53;0.70;99.90
40123;DHT22;25832;45.490;4.912;2022-12-10T05:41:22;0.70;99.90
40123;DHT22;25832;45.490;4.912;2022-12-10T05:43:48;0.70;99.90
40123;DHT22;25832;45.490;4.912;2022-12-10T05:46:19;0.70;99.90
40123;DHT22;25832;45.490;4.912;2022-12-10T05:48:45;0.70;99.90
40123;DHT22;25832;45.490;4.912;2022-12-10T05:51:13;0.70;99.90
40123;DHT22;25832;45.490;4.912;2022-12-10T05:53:40;0.70;99.90
40123;DHT22;25832;45.490;4.912;2022-12-10T05:56:08;0.70;99.90
40123;DHT22;25832;45.490;4.912;2022-12-10T05:58:35;0.70;99.90
40123;DHT22;25832;45.490;4.912;2022-12-10T06:01:12;0.70;99.90
40123;DHT22;25832;45.490;4.912;2022-12-10T06:03:39;0.70;99.90
40123;DHT22;25832;45.490;4.912;2022-12-10T06:06:05;0.70;99.90
40123;DHT22;25832;45.490;4.912;2022-12-10T06:08:32;0.70;99.90
40123;DHT22;25832;45.490;4.912;2022-12-10T06:11:05;0.80;99.90
40123;DHT22;25832;45.490;4.912;2022-12-10T06:13:31;0.80;99.90
40123;DHT22;25832;45.490;4.912;2022-12-10T06:15:57;0.80;99.90
40123;DHT22;25832;45.490;4.912;2022-12-10T06:18:22;0.70;99.90
40123;DHT22;25832;45.490;4.912;2022-12-10T06:20:48;0.70;99.90
40123;DHT22;25832;45.490;4.912;2022-12-10T06:23:14;0.70;99.90
40123;DHT22;25832;45.490;4.912;2022-12-10T06:25:40;0.70;99.90
40123;DHT22;25832;45.490;4.912;2022-12-10T06:28:06;0.70;99.90
40123;DHT22;25832;45.490;4.912;2022-12-10T06:30:32;0.70;99.90
40123;DHT22;25832;45.490;4.912;2022-12-10T06:32:58;0.70;99.90
40123;DHT22;25832;45.490;4.912;2022-12-10T06:35:24;0.70;99.90
40123;DHT22;25832;45.490;4.912;2022-12-10T06:37:49;0.70;99.90
40123;DHT22;25832;45.490;4.912;2022-12-10T06:40:16;0.70;99.90
40123;DHT22;25832;45.490;4.912;2022-12-10T06:42:41;0.70;99.90
40123;DHT22;25832;45.490;4.912;2022-12-10T06:45:07;0.70;99.90
40123;DHT22;25832;45.490;4.912;2022-12-10T06:47:33;0.70;99.90
40123;DHT22;25832;45.490;4.912;2022-12-10T06:49:59;0.70;99.90
40123;DHT22;25832;45.490;4.912;2022-12-10T06:52:25;0.60;99.90
40123;DHT22;25832;45.490;4.912;2022-12-10T06:54:50;0.60;99.90
40123;DHT22;25832;45.490;4.912;2022-12-10T06:57:16;0.60;99.90
40123;DHT22;25832;45.490;4.912;2022-12-10T06:59:42;0.60;99.90
40123;DHT22;25832;45.490;4.912;2022-12-10T07:02:09;0.60;99.90
40123;DHT22;25832;45.490;4.912;2022-12-10T07:04:35;0.60;99.90
40123;DHT22;25832;45.490;4.912;2022-12-10T07:07:00;0.60;99.90
40123;DHT22;25832;45.490;4.912;2022-12-10T07:09:26;0.60;99.90
40123;DHT22;25832;45.490;4.912;2022-12-10T07:11:52;0.60;99.90
40123;DHT22;25832;45.490;4.912;2022-12-10T07:14:18;0.60;99.90
40123;DHT22;25832;45.490;4.912;2022-12-10T07:16:44;0.60;99.90
40123;DHT22;25832;45.490;4.912;2022-12-10T07:19:10;0.60;99.90
40123;DHT22;25832;45.490;4.912;2022-12-10T07:21:37;0.60;99.90
40123;DHT22;25832;45.490;4.912;2022-12-10T07:24:07;0.60;99.90
40123;DHT22;25832;45.490;4.912;2022-12-10T07:26:37;0.60;99.90
40123;DHT22;25832;45.490;4.912;2022-12-10T07:29:04;0.60;99.90
40123;DHT22;25832;45.490;4.912;2022-12-10T07:31:30;0.60;99.90
40123;DHT22;25832;45.490;4.912;2022-12-10T07:33:57;0.60;99.90
40123;DHT22;25832;45.490;4.912;2022-12-10T07:36:23;0.60;99.90
40123;DHT22;25832;45.490;4.912;2022-12-10T07:38:53;0.60;99.90
40123;DHT22;25832;45.490;4.912;2022-12-10T07:41:20;0.60;99.90
40123;DHT22;25832;45.490;4.912;2022-12-10T07:43:46;0.60;99.90
40123;DHT22;25832;45.490;4.912;2022-12-10T07:48:45;0.60;99.90
40123;DHT22;25832;45.490;4.912;2022-12-10T07:51:11;0.60;99.90
40123;DHT22;25832;45.490;4.912;2022-12-10T07:53:37;0.60;99.90
40123;DHT22;25832;45.490;4.912;2022-12-10T07:56:04;0.60;99.90
40123;DHT22;25832;45.490;4.912;2022-12-10T07:58:30;0.60;99.90
40123;DHT22;25832;45.490;4.912;2022-12-10T08:00:55;0.60;99.90
40123;DHT22;25832;45.490;4.912;2022-12-10T08:03:21;0.60;99.90
40123;DHT22;25832;45.490;4.912;2022-12-10T08:05:47;0.60;99.90
40123;DHT22;25832;45.490;4.912;2022-12-10T08:08:13;0.60;99.90
40123;DHT22;25832;45.490;4.912;2022-12-10T08:10:39;0.70;99.90
40123;DHT22;25832;45.490;4.912;2022-12-10T08:13:06;0.60;99.90
40123;DHT22;25832;45.490;4.912;2022-12-10T08:15:32;0.60;99.90
40123;DHT22;25832;45.490;4.912;2022-12-10T08:17:58;0.60;99.90
40123;DHT22;25832;45.490;4.912;2022-12-10T08:20:24;0.70;99.90
40123;DHT22;25832;45.490;4.912;2022-12-10T08:22:50;0.60;99.90
40123;DHT22;25832;45.490;4.912;2022-12-10T08:25:17;0.70;99.90
40123;DHT22;25832;45.490;4.912;2022-12-10T08:27:43;0.70;99.90
40123;DHT22;25832;45.490;4.912;2022-12-10T08:30:09;0.70;99.90
40123;DHT22;25832;45.490;4.912;2022-12-10T08:32:35;0.70;99.90
40123;DHT22;25832;45.490;4.912;2022-12-10T08:35:01;0.70;99.90
40123;DHT22;25832;45.490;4.912;2022-12-10T08:37:26;0.80;99.90
40123;DHT22;25832;45.490;4.912;2022-12-10T08:39:52;0.80;99.90
40123;DHT22;25832;45.490;4.912;2022-12-10T08:42:18;0.80;99.90
40123;DHT22;25832;45.490;4.912;2022-12-10T08:44:43;0.80;99.90
40123;DHT22;25832;45.490;4.912;2022-12-10T08:47:09;0.80;99.90
40123;DHT22;25832;45.490;4.912;2022-12-10T08:49:35;0.80;99.90
40123;DHT22;25832;45.490;4.912;2022-12-10T08:52:00;0.80;99.90
40123;DHT22;25832;45.490;4.912;2022-12-10T08:54:26;0.80;99.90
40123;DHT22;25832;45.490;4.912;2022-12-10T08:56:52;0.80;99.90
40123;DHT22;25832;45.490;4.912;2022-12-10T08:59:17;0.80;99.90
40123;DHT22;25832;45.490;4.912;2022-12-10T09:01:43;0.80;99.90
40123;DHT22;25832;45.490;4.912;2022-12-10T09:04:09;0.80;99.90
40123;DHT22;25832;45.490;4.912;2022-12-10T09:06:35;0.80;99.90
40123;DHT22;25832;45.490;4.912;2022-12-10T09:09:00;0.80;99.90
40123;DHT22;25832;45.490;4.912;2022-12-10T09:11:30;0.80;99.90
40123;DHT22;25832;45.490;4.912;2022-12-10T09:13:56;0.80;99.90
40123;DHT22;25832;45.490;4.912;2022-12-10T09:16:31;0.90;99.90
40123;DHT22;25832;45.490;4.912;2022-12-10T09:18:57;0.90;99.90
40123;DHT22;25832;45.490;4.912;2022-12-10T09:21:23;0.90;99.90
40123;DHT22;25832;45.490;4.912;2022-12-10T09:23:50;0.90;99.90
40123;DHT22;25832;45.490;4.912;2022-12-10T09:26:17;0.90;99.90
40123;DHT22;25832;45.490;4.912;2022-12-10T09:28:44;0.90;99.90
40123;DHT22;25832;45.490;4.912;2022-12-10T09:31:11;0.90;99.90
40123;DHT22;25832;45.490;4.912;2022-12-10T09:33:37;0.90;99.90
40123;DHT22;25832;45.490;4.912;2022-12-10T09:36:08;0.90;99.90
40123;DHT22;25832;45.490;4.912;2022-12-10T09:38:36;0.90;99.90
40123;DHT22;25832;45.490;4.912;2022-12-10T09:41:04;1.00;99.90
40123;DHT22;25832;45.490;4.912;2022-12-10T09:43:55;1.00;99.90
40123;DHT22;25832;45.490;4.912;2022-12-10T09:49:33;1.00;99.90
40123;DHT22;25832;45.490;4.912;2022-12-10T09:52:05;1.00;99.90
40123;DHT22;25832;45.490;4.912;2022-12-10T09:54:40;1.00;99.90
40123;DHT22;25832;45.490;4.912;2022-12-10T09:57:23;1.00;99.90
40123;DHT22;25832;45.490;4.912;2022-12-10T09:59:52;1.00;99.90
40123;DHT22;25832;45.490;4.912;2022-12-10T10:02:30;1.00;99.90
40123;DHT22;25832;45.490;4.912;2022-12-10T10:07:33;1.10;99.90
40123;DHT22;25832;45.490;4.912;2022-12-10T10:10:06;1.10;99.90
40123;DHT22;25832;45.490;4.912;2022-12-10T10:12:33;1.20;99.90
40123;DHT22;25832;45.490;4.912;2022-12-10T10:15:15;1.20;99.90
40123;DHT22;25832;45.490;4.912;2022-12-10T10:17:42;1.10;99.90
40123;DHT22;25832;45.490;4.912;2022-12-10T10:20:13;1.00;99.90
40123;DHT22;25832;45.490;4.912;2022-12-10T10:22:40;0.90;99.90
40123;DHT22;25832;45.490;4.912;2022-12-10T10:25:13;0.80;99.90
40123;DHT22;25832;45.490;4.912;2022-12-10T10:27:40;0.80;99.90
40123;DHT22;25832;45.490;4.912;2022-12-10T10:30:12;0.70;99.90
40123;DHT22;25832;45.490;4.912;2022-12-10T10:35:05;0.70;99.90
40123;DHT22;25832;45.490;4.912;2022-12-10T10:37:41;0.70;99.90
40123;DHT22;25832;45.490;4.912;2022-12-10T10:40:22;0.70;99.90
40123;DHT22;25832;45.490;4.912;2022-12-10T10:42:48;0.70;99.90
40123;DHT22;25832;45.490;4.912;2022-12-10T10:45:40;0.70;99.90
40123;DHT22;25832;45.490;4.912;2022-12-10T10:48:11;0.60;99.90
40123;DHT22;25832;45.490;4.912;2022-12-10T10:56:17;0.70;99.90
40123;DHT22;25832;45.490;4.912;2022-12-10T11:01:25;0.70;99.90
40123;DHT22;25832;45.490;4.912;2022-12-10T11:03:57;0.70;99.90
40123;DHT22;25832;45.490;4.912;2022-12-10T11:06:23;0.70;99.90
40123;DHT22;25832;45.490;4.912;2022-12-10T11:08:51;0.60;99.90
40123;DHT22;25832;45.490;4.912;2022-12-10T11:11:24;0.60;99.90
40123;DHT22;25832;45.490;4.912;2022-12-10T11:13:50;0.60;99.90
40123;DHT22;25832;45.490;4.912;2022-12-10T11:16:23;0.60;99.90
40123;DHT22;25832;45.490;4.912;2022-12-10T11:19:03;0.70;99.90
40123;DHT22;25832;45.490;4.912;2022-12-10T11:21:32;0.70;99.90
40123;DHT22;25832;45.490;4.912;2022-12-10T11:23:59;0.70;99.90
40123;DHT22;25832;45.490;4.912;2022-12-10T11:26:34;0.70;99.90
40123;DHT22;25832;45.490;4.912;2022-12-10T11:32:46;0.70;99.90
40123;DHT22;25832;45.490;4.912;2022-12-10T11:37:55;0.70;99.90
40123;DHT22;25832;45.490;4.912;2022-12-10T11:40:38;0.60;99.90
40123;DHT22;25832;45.490;4.912;2022-12-10T11:43:25;0.70;99.90
40123;DHT22;25832;45.490;4.912;2022-12-10T12:05:40;0.50;99.90
40123;DHT22;25832;45.490;4.912;2022-12-10T12:08:51;0.50;99.90
40123;DHT22;25832;45.490;4.912;2022-12-10T12:11:41;0.50;99.90
40123;DHT22;25832;45.490;4.912;2022-12-10T12:14:58;0.50;99.90
40123;DHT22;25832;45.490;4.912;2022-12-10T12:19:50;0.40;99.90
40123;DHT22;25832;45.490;4.912;2022-12-10T12:22:27;0.40;99.90
40123;DHT22;25832;45.490;4.912;2022-12-10T12:25:10;0.40;99.90
40123;DHT22;25832;45.490;4.912;2022-12-10T12:27:45;0.40;99.90
40123;DHT22;25832;45.490;4.912;2022-12-10T12:30:20;0.40;99.90
40123;DHT22;25832;45.490;4.912;2022-12-10T12:35:42;0.40;99.90
40123;DHT22;25832;45.490;4.912;2022-12-10T12:40:55;0.50;99.90
40123;DHT22;25832;45.490;4.912;2022-12-10T12:43:40;0.50;99.90
40123;DHT22;25832;45.490;4.912;2022-12-10T12:46:14;0.60;99.90
40123;DHT22;25832;45.490;4.912;2022-12-10T12:51:15;0.60;99.90
40123;DHT22;25832;45.490;4.912;2022-12-10T12:53:42;0.70;99.90
40123;DHT22;25832;45.490;4.912;2022-12-10T13:01:57;0.70;99.90
40123;DHT22;25832;45.490;4.912;2022-12-10T13:04:25;0.70;99.90
40123;DHT22;25832;45.490;4.912;2022-12-10T13:09:50;0.70;99.90
40123;DHT22;25832;45.490;4.912;2022-12-10T13:12:24;0.70;99.90
40123;DHT22;25832;45.490;4.912;2022-12-10T13:15:00;0.80;99.90
40123;DHT22;25832;45.490;4.912;2022-12-10T13:17:36;0.70;99.90
40123;DHT22;25832;45.490;4.912;2022-12-10T13:20:28;0.70;99.90
40123;DHT22;25832;45.490;4.912;2022-12-10T13:23:03;0.70;99.90
40123;DHT22;25832;45.490;4.912;2022-12-10T13:36:27;0.70;99.90
40123;DHT22;25832;45.490;4.912;2022-12-10T13:41:38;0.80;99.90
40123;DHT22;25832;45.490;4.912;2022-12-10T13:47:27;0.80;99.90
40123;DHT22;25832;45.490;4.912;2022-12-10T13:50:01;0.80;99.90
40123;DHT22;25832;45.490;4.912;2022-12-10T13:55:32;0.80;99.90
40123;DHT22;25832;45.490;4.912;2022-12-10T13:58:26;0.90;99.90
40123;DHT22;25832;45.490;4.912;2022-12-10T14:06:44;0.70;99.90
40123;DHT22;25832;45.490;4.912;2022-12-10T14:09:19;0.70;99.90
40123;DHT22;25832;45.490;4.912;2022-12-10T14:12:05;0.70;99.90
40123;DHT22;25832;45.490;4.912;2022-12-10T14:14:41;0.80;99.90
40123;DHT22;25832;45.490;4.912;2022-12-10T14:17:32;0.80;99.90
40123;DHT22;25832;45.490;4.912;2022-12-10T14:19:58;0.80;99.90
40123;DHT22;25832;45.490;4.912;2022-12-10T14:22:45;0.80;99.90
40123;DHT22;25832;45.490;4.912;2022-12-10T14:25:21;0.80;99.90
40123;DHT22;25832;45.490;4.912;2022-12-10T14:27:49;0.80;99.90
40123;DHT22;25832;45.490;4.912;2022-12-10T14:30:25;0.80;99.90
40123;DHT22;25832;45.490;4.912;2022-12-10T14:32:56;0.80;99.90
40123;DHT22;25832;45.490;4.912;2022-12-10T14:35:25;0.80;99.90
40123;DHT22;25832;45.490;4.912;2022-12-10T14:37:53;0.70;99.90
40123;DHT22;25832;45.490;4.912;2022-12-10T14:42:45;0.70;99.90
40123;DHT22;25832;45.490;4.912;2022-12-10T14:45:14;0.70;99.90
40123;DHT22;25832;45.490;4.912;2022-12-10T14:47:39;0.70;99.90
40123;DHT22;25832;45.490;4.912;2022-12-10T14:50:13;0.70;99.90
40123;DHT22;25832;45.490;4.912;2022-12-10T14:52:41;0.70;99.90
40123;DHT22;25832;45.490;4.912;2022-12-10T14:55:17;0.70;99.90
40123;DHT22;25832;45.490;4.912;2022-12-10T14:58:01;0.70;99.90
40123;DHT22;25832;45.490;4.912;2022-12-10T15:00:28;0.70;99.90
40123;DHT22;25832;45.490;4.912;2022-12-10T15:02:57;0.70;99.90
40123;DHT22;25832;45.490;4.912;2022-12-10T15:05:27;0.70;99.90
40123;DHT22;25832;45.490;4.912;2022-12-10T15:07:56;0.70;99.90
40123;DHT22;25832;45.490;4.912;2022-12-10T15:13:00;0.70;99.90
40123;DHT22;25832;45.490;4.912;2022-12-10T15:15:36;0.70;99.90
40123;DHT22;25832;45.490;4.912;2022-12-10T15:28:34;0.60;99.90
40123;DHT22;25832;45.490;4.912;2022-12-10T15:33:57;0.60;99.90
40123;DHT22;25832;45.490;4.912;2022-12-10T15:39:20;0.60;99.90
40123;DHT22;25832;45.490;4.912;2022-12-10T15:41:48;0.50;99.90
40123;DHT22;25832;45.490;4.912;2022-12-10T15:49:24;0.60;99.90
40123;DHT22;25832;45.490;4.912;2022-12-10T15:51:50;0.60;99.90
40123;DHT22;25832;45.490;4.912;2022-12-10T15:54:31;0.60;99.90
40123;DHT22;25832;45.490;4.912;2022-12-10T15:56:57;0.60;99.90
40123;DHT22;25832;45.490;4.912;2022-12-10T15:59:23;0.60;99.90
40123;DHT22;25832;45.490;4.912;2022-12-10T16:01:49;0.60;99.90
40123;DHT22;25832;45.490;4.912;2022-12-10T16:04:14;0.60;99.90
40123;DHT22;25832;45.490;4.912;2022-12-10T16:06:40;0.60;99.90
40123;DHT22;25832;45.490;4.912;2022-12-10T16:09:08;0.60;99.90
40123;DHT22;25832;45.490;4.912;2022-12-10T16:11:33;0.60;99.90
40123;DHT22;25832;45.490;4.912;2022-12-10T16:13:59;0.60;99.90
40123;DHT22;25832;45.490;4.912;2022-12-10T16:16:26;0.60;99.90
40123;DHT22;25832;45.490;4.912;2022-12-10T16:18:52;0.60;99.90
40123;DHT22;25832;45.490;4.912;2022-12-10T16:21:17;0.60;99.90
40123;DHT22;25832;45.490;4.912;2022-12-10T16:23:43;0.60;99.90
40123;DHT22;25832;45.490;4.912;2022-12-10T16:28:39;0.50;99.90
40123;DHT22;25832;45.490;4.912;2022-12-10T16:31:07;0.60;99.90
40123;DHT22;25832;45.490;4.912;2022-12-10T16:33:34;0.60;99.90
40123;DHT22;25832;45.490;4.912;2022-12-10T16:36:00;0.60;99.90
40123;DHT22;25832;45.490;4.912;2022-12-10T16:38:27;0.50;99.90
40123;DHT22;25832;45.490;4.912;2022-12-10T16:40:53;0.60;99.90
40123;DHT22;25832;45.490;4.912;2022-12-10T16:43:21;0.60;99.90
40123;DHT22;25832;45.490;4.912;2022-12-10T16:45:48;0.60;99.90
40123;DHT22;25832;45.490;4.912;2022-12-10T16:48:14;0.50;99.90
40123;DHT22;25832;45.490;4.912;2022-12-10T16:50:41;0.50;99.90
40123;DHT22;25832;45.490;4.912;2022-12-10T16:53:15;0.50;99.90
40123;DHT22;25832;45.490;4.912;2022-12-10T16:55:41;0.50;99.90
40123;DHT22;25832;45.490;4.912;2022-12-10T16:58:11;0.50;99.90
40123;DHT22;25832;45.490;4.912;2022-12-10T17:00:38;0.50;99.90
40123;DHT22;25832;45.490;4.912;2022-12-10T17:03:03;0.50;99.90
40123;DHT22;25832;45.490;4.912;2022-12-10T17:05:35;0.50;99.90
40123;DHT22;25832;45.490;4.912;2022-12-10T17:08:02;0.50;99.90
40123;DHT22;25832;45.490;4.912;2022-12-10T17:10:28;0.50;99.90
40123;DHT22;25832;45.490;4.912;2022-12-10T17:13:13;0.50;99.90
40123;DHT22;25832;45.490;4.912;2022-12-10T17:15:40;0.50;99.90
40123;DHT22;25832;45.490;4.912;2022-12-10T17:18:13;0.50;99.90
40123;DHT22;25832;45.490;4.912;2022-12-10T17:20:39;0.50;99.90
40123;DHT22;25832;45.490;4.912;2022-12-10T17:23:05;0.50;99.90
40123;DHT22;25832;45.490;4.912;2022-12-10T17:25:30;0.50;99.90
40123;DHT22;25832;45.490;4.912;2022-12-10T17:27:57;0.50;99.90
40123;DHT22;25832;45.490;4.912;2022-12-10T17:30:23;0.50;99.90
40123;DHT22;25832;45.490;4.912;2022-12-10T17:32:49;0.50;99.90
40123;DHT22;25832;45.490;4.912;2022-12-10T17:35:15;0.50;99.90
40123;DHT22;25832;45.490;4.912;2022-12-10T17:37:41;0.50;99.90
40123;DHT22;25832;45.490;4.912;2022-12-10T17:40:16;0.50;99.90
40123;DHT22;25832;45.490;4.912;2022-12-10T17:42:42;0.50;99.90
40123;DHT22;25832;45.490;4.912;2022-12-10T17:45:11;0.50;99.90
40123;DHT22;25832;45.490;4.912;2022-12-10T17:47:37;0.50;99.90
40123;DHT22;25832;45.490;4.912;2022-12-10T17:50:03;0.50;99.90
40123;DHT22;25832;45.490;4.912;2022-12-10T17:52:37;0.50;99.90
40123;DHT22;25832;45.490;4.912;2022-12-10T17:55:03;0.50;99.90
40123;DHT22;25832;45.490;4.912;2022-12-10T17:57:29;0.40;99.90
40123;DHT22;25832;45.490;4.912;2022-12-10T17:59:55;0.40;99.90
40123;DHT22;25832;45.490;4.912;2022-12-10T18:02:20;0.40;99.90
40123;DHT22;25832;45.490;4.912;2022-12-10T18:04:46;0.40;99.90
40123;DHT22;25832;45.490;4.912;2022-12-10T18:07:14;0.40;99.90
40123;DHT22;25832;45.490;4.912;2022-12-10T18:09:40;0.30;99.90
40123;DHT22;25832;45.490;4.912;2022-12-10T18:12:07;0.30;99.90
40123;DHT22;25832;45.490;4.912;2022-12-10T18:14:33;0.30;99.90
40123;DHT22;25832;45.490;4.912;2022-12-10T18:16:58;0.30;99.90
40123;DHT22;25832;45.490;4.912;2022-12-10T18:19:24;0.30;99.90
40123;DHT22;25832;45.490;4.912;2022-12-10T18:21:50;0.30;99.90
40123;DHT22;25832;45.490;4.912;2022-12-10T18:24:15;0.30;99.90